עמוד ראשי
METAR-TAF:

METAR-TAF

שדות תעופה :

Maragheh, איראן

קו רוחב: 37-20-55N, קו אורך: 046-07-35E, גובה: 1340מטר

תצפית מזג אוויר נוכחית

הדו"ח נערך לפני 22דקות, בשעה 15:00 UTC
רוח 4קשר מכיוון מערב
טמפרטורת 35 צלסיוס
לחות 19%
לחץ 1007 hPa
ראות 10 קילומטר או יותר
מעט עננים בגובה 3500רגל

METAR: OITM 181500Z 26004KT 9999 FEW035 35/08 Q1007

זמן: 19:52 (15:22 UTC)


TAF: חסר

תצפיות ותחזיות מזג אוויר לגבי יותר מ- 4,000 שדות תעופה ברחבי העולם. דוחות METAR ו- TAF.

התחנות הזמינות מסומנות בנקודות צהובות ואדומות על גבי המפה.

העבר את העכבר לנקודה הצבעונית על מנת לראות את שם התחנה.

לאחר מכן, לחץ כדי לראות את תוכן ואת תחזיות מזג האוויר.

כדי לשנות את המפה: לחץ על הכפתורים הירוקים עם הפלוס השחור כדי להתקרב; על הכפתור הירוק עם המקף כדי להתרחק; או בחיצים הירוקים למפות סמוכות.


METAR-TAF: